Latest Weather Observations for Townsville

IDQ60801

Issued at 11:02 pm EST Tuesday 21 April 2015 (issued every 30 minutes, with the page automatically refreshed every 10 minutes)

About weather observations | Map of weather stations | Latest weather observations for QLD | Other Formats
Station Details ID: 032040 Name: TOWNSVILLE AERO Lat: -19.25 Lon: 146.77 Height: 4.34 m
Data from the previous 72 hours. | See also: Recent months at Townsville
Date/Time
EST
Temp
°C
App
Temp
°C
Dew
Point
Rel
Hum
%
Delta-T
°C
Wind Press
QNH
hPa
Press
MSL
hPa
Rain
since 9 am
mm
Dir
 
Spd
km/h
Gust
km/h
Spd
kts
Gust
kts
21/11:00pm 22.6 23.6 17.8 74 3.0 SE 9 11 5 6 1015.0 - 0.0
21/10:30pm 23.0 24.3 18.4 75 2.9 SE 9 11 5 6 1015.2 - 0.0
21/10:00pm 23.6 24.3 18.0 71 3.5 S 11 13 6 7 1015.3 - 0.0
21/09:30pm 23.7 25.4 18.5 72 3.3 SSE 7 9 4 5 1015.0 - 0.0
21/09:00pm 24.2 25.8 18.3 69 3.7 SSE 7 13 4 7 1015.0 1014.9 0.0
21/08:30pm 24.4 24.9 18.4 69 3.8 SSE 13 17 7 9 1014.8 - 0.0
21/08:00pm 24.6 25.5 18.4 68 3.9 SE 11 15 6 8 1014.4 - 0.0
21/07:30pm 25.3 25.4 18.3 65 4.4 ESE 15 19 8 10 1013.9 - 0.0
21/07:00pm 25.3 26.4 18.9 67 4.1 E 11 13 6 7 1013.5 - 0.0
21/06:30pm 25.5 25.0 18.6 65 4.4 ENE 19 26 10 14 1013.1 - 0.0
21/05:30pm 26.4 24.3 18.0 60 5.3 ENE 26 32 14 17 1012.6 - 0.0
21/05:00pm 28.4 26.0 15.5 45 7.9 ENE 22 26 12 14 1012.2 - 0.0
21/04:30pm 28.4 26.5 15.7 46 7.8 ENE 20 26 11 14 1012.4 - 0.0
21/04:00pm 28.6 26.0 16.0 46 7.8 NE 24 30 13 16 1012.1 - 0.0
21/03:30pm 29.3 27.7 16.1 44 8.2 ENE 19 26 10 14 1012.2 - 0.0
21/03:00pm 29.6 29.2 14.2 39 9.3 SE 9 22 5 12 1012.4 1012.3 0.0
21/02:30pm 29.5 27.7 14.5 40 9.1 SSE 17 26 9 14 1012.7 - 0.0
21/02:00pm 29.1 26.4 13.0 37 9.5 SSW 19 26 10 14 1013.0 - 0.0
21/01:30pm 29.2 26.7 13.4 38 9.4 S 19 28 10 15 1013.5 - 0.0
21/01:00pm 28.4 26.4 13.8 40 8.7 S 17 32 9 17 1014.1 - 0.0
21/12:30pm 27.7 25.8 14.2 43 8.1 S 17 26 9 14 1014.7 - 0.0
21/12:00pm 27.5 24.4 14.5 45 7.8 SW 24 32 13 17 1015.2 1015.1 0.0
21/11:30am 26.9 23.6 15.0 48 7.2 SSW 26 33 14 18 1015.8 - 0.0
21/11:00am 26.4 23.2 15.2 50 6.8 SSW 26 37 14 20 1016.3 - 0.0
21/10:30am 26.0 22.8 15.2 51 6.5 S 26 33 14 18 1016.6 - 0.0
21/10:00am 24.6 20.1 15.3 56 5.6 SSW 33 39 18 21 1016.8 - 0.0
21/09:30am 24.2 19.3 15.2 57 5.4 SSW 35 44 19 24 1016.6 - 0.0
21/09:00am 24.0 19.5 15.3 58 5.2 SSW 33 41 18 22 1016.5 1016.4 5.2
21/08:00am 23.0 19.1 15.5 62 4.5 SSW 30 37 16 20 1016.2 - 5.2
21/07:30am 22.7 18.9 15.7 64 4.2 SSW 30 35 16 19 1016.2 - 5.2
21/07:00am 22.8 20.2 16.0 65 4.1 S 24 32 13 17 1015.9 - 5.2
21/06:30am 22.6 20.1 16.2 67 3.9 SSW 24 32 13 17 1015.4 - 5.2
21/05:30am 22.8 21.0 16.0 65 4.1 SSW 20 28 11 15 1015.1 - 5.2
21/05:00am 23.1 19.7 15.8 63 4.4 SSW 28 37 15 20 1014.8 - 5.2
21/04:30am 23.1 20.5 15.8 63 4.4 SSW 24 30 13 16 1014.8 - 5.2
21/04:00am 23.4 21.4 15.4 60 4.8 SSW 20 28 11 15 1014.8 - 5.2
21/03:30am 23.5 22.5 15.5 60 4.8 SSW 15 22 8 12 1014.7 - 5.2
21/03:00am 23.7 22.6 15.2 59 5.1 SSW 15 19 8 10 1014.8 1014.7 5.2
21/02:30am 23.7 23.1 15.6 60 4.9 S 13 17 7 9 1014.9 - 5.2
21/02:00am 23.7 23.2 15.8 61 4.8 SSE 13 17 7 9 1015.0 - 5.2
21/01:30am 24.0 24.0 15.1 57 5.3 SE 9 11 5 6 1015.4 - 5.2
21/01:00am 23.9 24.3 16.2 62 4.7 S 9 11 5 6 1015.6 - 5.2
21/12:30am 24.0 23.0 15.7 59 5.0 S 15 24 8 13 1015.9 - 5.2
21/12:00am 23.9 22.1 15.6 59 5.0 S 19 28 10 15 1015.9 1015.8 5.2
 
Date/Time
EST
Temp
°C
App
Temp
°C
Dew
Point
Rel
Hum
%
Delta-T
°C
Wind Press
QNH
hPa
Press
MSL
hPa
Rain
since 9 am
mm
Dir
 
Spd
km/h
Gust
km/h
Spd
kts
Gust
kts
20/11:30pm 23.9 22.3 16.0 61 4.8 S 19 26 10 14 1016.0 - 5.2
20/11:00pm 24.1 23.6 15.8 59 5.0 S 13 20 7 11 1016.1 - 5.2
20/10:30pm 24.0 22.6 16.5 63 4.6 S 19 26 10 14 1016.4 - 5.2
20/10:00pm 24.0 22.3 17.2 65 4.2 S 22 33 12 18 1016.7 - 5.2
20/09:30pm 24.0 24.5 18.3 70 3.6 SSE 13 17 7 9 1016.6 - 5.2
20/09:00pm 24.0 22.5 18.6 72 3.4 S 24 32 13 17 1016.5 1016.4 5.2
20/08:30pm 23.1 26.5 21.6 91 1.0 SSW 6 9 3 5 1016.0 - 5.2
20/08:20pm 22.9 26.0 21.4 91 1.0 S 7 11 4 6 1015.9 - 5.2
20/08:00pm 22.7 24.6 21.3 92 0.9 S 13 20 7 11 1015.7 - 4.8
20/07:42pm 22.3 21.2 21.1 93 0.8 S 28 37 15 20 1015.3 - 4.2
20/07:30pm 22.8 21.7 21.1 90 1.1 SSW 28 37 15 20 1015.2 - 2.0
20/07:20pm 23.8 22.9 21.4 86 1.6 SSW 28 39 15 21 1014.9 - 0.4
20/07:00pm 24.3 26.4 21.7 85 1.7 SSE 13 19 7 10 1014.4 - 0.0
20/06:30pm 26.6 26.4 21.3 72 3.5 SSE 24 33 13 18 1013.9 - 0.0
20/06:00pm 27.7 29.1 21.9 70 3.9 E 17 20 9 11 1013.4 1013.3 0.0
20/05:30pm 27.8 29.0 21.5 68 4.2 ENE 17 26 9 14 1012.9 - 0.0
20/05:00pm 28.2 27.4 20.8 64 4.9 ENE 26 32 14 17 1012.5 - 0.0
20/04:30pm 29.2 28.4 21.6 63 5.1 ENE 28 33 15 18 1012.4 - 0.0
20/04:00pm 29.6 28.8 21.6 62 5.4 ENE 28 32 15 17 1012.3 - 0.0
20/03:30pm 30.0 29.6 21.7 61 5.6 ENE 26 32 14 17 1012.2 - 0.0
20/03:00pm 30.5 29.7 21.6 59 6.0 ENE 28 32 15 17 1012.0 1011.9 0.0
20/02:30pm 30.4 29.1 20.6 55 6.5 ENE 28 33 15 18 1012.2 - 0.0
20/02:00pm 30.8 30.0 20.0 52 7.1 ENE 24 32 13 17 1012.5 - 0.0
20/01:30pm 30.5 29.3 19.3 51 7.3 NE 24 30 13 16 1012.9 - 0.0
20/01:00pm 31.8 30.3 18.5 45 8.6 NE 24 30 13 16 1013.3 - 0.0
20/12:30pm 32.3 29.7 17.8 42 9.3 ENE 28 33 15 18 1013.8 - 0.0
20/12:00pm 31.2 29.4 17.8 44 8.6 ENE 24 30 13 16 1014.1 1014.0 0.0
20/11:30am 30.3 30.7 18.9 50 7.4 E 15 20 8 11 1015.2 - 0.0
20/11:00am 30.8 31.5 18.8 48 7.8 S 13 20 7 11 1015.9 - 0.0
20/10:30am 30.2 31.7 18.8 50 7.4 SSE 9 15 5 8 1016.1 - 0.0
20/10:00am 30.2 30.8 18.6 49 7.5 SSE 13 22 7 12 1016.3 - 0.0
20/09:30am 29.0 29.6 18.6 53 6.7 SE 13 22 7 12 1016.3 - 0.0
20/09:00am 28.2 29.2 18.7 56 6.1 S 11 19 6 10 1016.2 1016.1 0.0
20/08:30am 27.8 29.5 19.3 60 5.5 S 9 13 5 7 1015.9 - 0.0
20/08:00am 26.5 27.7 19.9 67 4.3 S 13 15 7 8 1015.7 - 0.0
20/07:30am 25.7 27.8 20.2 71 3.6 S 9 11 5 6 1015.3 - 0.0
20/07:00am 24.4 26.5 20.2 77 2.7 S 9 11 5 6 1015.3 - 0.0
20/06:30am 23.8 25.6 20.4 81 2.2 S 11 11 6 6 1015.0 - 0.0
20/06:00am 23.8 25.9 20.9 84 1.9 S 11 13 6 7 1014.8 1014.7 0.0
20/05:30am 24.2 26.8 21.2 83 2.0 S 9 11 5 6 1014.6 - 0.0
20/05:00am 24.8 27.4 21.2 80 2.4 SSW 9 11 5 6 1014.6 - 0.0
20/04:30am 24.7 27.5 20.9 79 2.5 SSE 7 9 4 5 1014.5 - 0.0
20/04:00am 24.5 27.3 20.8 80 2.4 ESE 7 9 4 5 1014.5 - 0.0
20/03:30am 25.2 27.6 20.8 76 2.9 SE 9 11 5 6 1014.4 - 0.0
20/03:00am 25.6 28.1 21.0 75 3.0 SE 9 13 5 7 1014.4 1014.3 0.0
20/02:30am 26.0 27.8 21.2 75 3.2 SE 13 17 7 9 1014.6 - 0.0
20/02:00am 26.2 28.3 21.7 76 3.0 ESE 13 17 7 9 1014.9 - 0.0
20/01:30am 26.3 28.9 22.0 77 2.9 SE 11 17 6 9 1015.2 - 0.0
20/01:00am 26.6 28.4 21.8 75 3.2 ESE 15 24 8 13 1015.6 - 0.0
20/12:30am 26.4 28.6 21.9 76 3.0 ESE 13 17 7 9 1015.6 - 0.0
20/12:00am 26.4 28.7 22.1 77 2.9 SE 13 17 7 9 1015.9 1015.8 0.0
 
Date/Time
EST
Temp
°C
App
Temp
°C
Dew
Point
Rel
Hum
%
Delta-T
°C
Wind Press
QNH
hPa
Press
MSL
hPa
Rain
since 9 am
mm
Dir
 
Spd
km/h
Gust
km/h
Spd
kts
Gust
kts
19/11:30pm 26.4 29.1 22.2 78 2.8 SE 11 15 6 8 1016.2 - 0.0
19/11:00pm 26.3 29.5 22.4 79 2.6 ESE 9 13 5 7 1016.3 - 0.0
19/10:30pm 26.1 29.0 22.5 80 2.4 SE 11 15 6 8 1016.1 - 0.0
19/10:00pm 26.3 29.0 22.8 81 2.4 ESE 13 17 7 9 1015.9 - 0.0
19/09:30pm 26.5 29.1 22.7 79 2.6 E 13 17 7 9 1015.7 - 0.0
19/09:00pm 26.5 29.2 22.8 80 2.5 E 13 17 7 9 1015.6 1015.5 0.0
19/08:30pm 26.3 29.3 22.6 80 2.5 ESE 11 15 6 8 1015.1 - 0.0
19/08:00pm 26.3 29.9 22.3 78 2.7 E 7 11 4 6 1014.8 - 0.0
19/07:30pm 26.8 28.8 22.2 76 3.1 ENE 15 20 8 11 1014.3 - 0.0
19/07:00pm 27.0 28.8 21.9 73 3.4 ENE 15 17 8 9 1014.1 - 0.0
19/06:30pm 27.0 29.3 22.1 74 3.3 ENE 13 17 7 9 1013.8 - 0.0
19/06:00pm 27.3 29.0 22.3 74 3.4 ENE 17 19 9 10 1013.8 1013.7 0.0
19/05:30pm 27.9 29.3 21.8 69 4.1 NE 17 22 9 12 1013.7 - 0.0
19/05:00pm 28.4 29.3 22.0 68 4.3 ENE 20 26 11 14 1013.4 - 0.0
19/04:30pm 29.3 30.1 21.7 63 5.1 NE 20 26 11 14 1013.4 - 0.0
19/04:00pm 29.7 29.3 21.7 62 5.4 ENE 26 32 14 17 1013.2 - 0.0
19/03:30pm 29.4 28.6 21.7 63 5.2 ENE 28 33 15 18 1013.1 - 0.0
19/03:00pm 30.2 29.6 21.9 61 5.6 ENE 28 35 15 19 1013.3 1013.2 0.0
19/02:30pm 30.5 30.2 22.6 62 5.4 ENE 28 33 15 18 1013.5 - 0.0
19/02:00pm 30.8 30.4 22.3 60 5.8 ENE 28 37 15 20 1014.1 - 0.0
19/01:30pm 30.8 30.2 21.9 59 6.0 ENE 28 32 15 17 1014.3 - 0.0
19/01:00pm 30.1 29.6 22.1 62 5.4 ENE 28 33 15 18 1014.7 - 0.0
19/12:30pm 30.6 29.2 21.2 57 6.3 ENE 30 37 16 20 1015.2 - 0.0
19/12:00pm 31.0 30.3 20.3 53 7.1 E 24 33 13 18 1015.8 1015.7 0.0
19/11:30am 30.9 29.7 21.5 57 6.3 ENE 30 39 16 21 1016.3 - 0.0
19/11:00am 31.1 31.4 21.6 57 6.4 E 22 28 12 15 1016.7 - 0.0
19/10:30am 30.7 30.9 21.3 57 6.3 ESE 22 30 12 16 1016.9 - 0.0
19/10:00am 29.6 30.3 21.2 60 5.6 ESE 19 26 10 14 1016.9 - 0.0
19/09:30am 29.0 28.6 20.9 61 5.4 SE 24 32 13 17 1016.9 - 0.0
19/09:00am 28.4 30.2 21.2 65 4.8 ESE 13 17 7 9 1016.8 1016.7 0.2
19/08:30am 27.8 29.7 21.3 67 4.3 ESE 13 19 7 10 1016.7 - 0.2
19/08:00am 26.4 29.1 21.3 73 3.4 S 9 13 5 7 1016.4 - 0.2
19/07:30am 25.3 29.5 21.0 77 2.8 CALM 0 7 0 4 1016.1 - 0.2
19/07:00am 24.4 27.0 21.2 82 2.1 S 9 11 5 6 1015.5 - 0.2
19/06:30am 23.8 26.2 20.9 84 1.9 SSE 9 11 5 6 1015.2 - 0.2
19/06:00am 23.8 28.0 20.9 84 1.9 CALM 0 7 0 4 1014.8 1014.7 0.2
19/05:30am 24.2 26.7 21.0 82 2.1 SE 9 11 5 6 1014.6 - 0.2
19/05:00am 24.6 27.3 21.4 82 2.1 SSE 9 13 5 7 1014.3 - 0.2
19/04:30am 24.2 27.2 21.3 84 1.9 SE 7 11 4 6 1014.0 - 0.2
19/04:00am 24.5 29.0 21.5 83 2.0 CALM 0 0 0 0 1014.1 - 0.2
19/03:30am 24.7 27.1 21.5 82 2.1 SE 11 13 6 7 1014.2 - 0.2
19/03:00am 25.0 27.3 21.4 80 2.4 SE 11 15 6 8 1014.4 1014.3 0.2
19/02:30am 25.3 27.1 21.2 78 2.7 ESE 13 15 7 8 1014.6 - 0.2
19/02:00am 25.3 27.1 21.2 78 2.7 SE 13 17 7 9 1015.0 - 0.2
19/01:30am 25.7 27.2 21.2 76 3.0 ESE 15 19 8 10 1015.4 - 0.2
19/01:00am 25.4 27.0 20.8 75 3.0 ESE 13 17 7 9 1015.7 - 0.2
19/12:30am 25.2 26.7 20.6 75 3.0 SE 13 15 7 8 1016.0 - 0.2
19/12:00am 25.2 26.7 20.6 75 3.0 SE 13 15 7 8 1016.0 1015.9 0.2
 
Date/Time
EST
Temp
°C
App
Temp
°C
Dew
Point
Rel
Hum
%
Delta-T
°C
Wind Press
QNH
hPa
Press
MSL
hPa
Rain
since 9 am
mm
Dir
 
Spd
km/h
Gust
km/h
Spd
kts
Gust
kts
18/11:30pm 25.1 27.0 20.5 75 3.0 SE 11 13 6 7 1016.0 - 0.2

Other Formats:

Comma delimited format used in spreadsheet applications
http://www.bom.gov.au/fwo/IDQ60801/IDQ60801.94294.axf

JavaScript Object Notation format (JSON) in row-major order
http://www.bom.gov.au/fwo/IDQ60801/IDQ60801.94294.json